LJSG weather

Slovenj Gradec Airport
Slovenc Gradec, Slovenj Gradec, Slovenia

Public forecast

Using degrees Celsius for public forecast. Weather courtesy of forecast.io.

Closest aviation weather report (METAR) to Slovenj Gradec Airport

Closest report is Maribor Airport, 23.5 nm (43.6 km) E. Retrieved 2019/10/23 22:30 UTC (0 seconds ago):

LJMB 232230Z AUTO VRB01KT 2600 BR NCD 09/09 Q1017

Closest aviation forecast (TAF) to Slovenj Gradec Airport

Closest forecast is Maribor Airport, 23.5 nm (43.6 km) E. Retrieved 2019/10/23 21:08 UTC (1 hour ago):

TAF LJMB 232000Z 2321/2421 VRB02KT CAVOK PROB30 TEMPO 2402/2407 5000 BR NSC BECMG 2407/2409 19005KT BECMG 2411/2413 20010KT TEMPO 2412/2416 20015KT BECMG 2419/2421 19005KT